createdAt,value
2022-10-09T00:01:20.607Z,35.65
2022-10-09T00:04:29.219Z,36.42
2022-10-09T00:07:38.248Z,36.65
2022-10-09T00:10:48.191Z,37.47
2022-10-09T00:13:57.745Z,38.00
2022-10-09T00:17:06.941Z,38.15
2022-10-09T00:20:15.675Z,36.25
2022-10-09T00:23:25.653Z,36.90
2022-10-09T00:26:33.799Z,36.35
2022-10-09T00:29:43.415Z,39.65
2022-10-09T00:32:52.446Z,35.50
2022-10-09T00:36:00.451Z,37.00
2022-10-09T00:39:08.257Z,40.45
2022-10-09T00:42:16.968Z,37.35
2022-10-09T00:45:26.220Z,35.15
2022-10-09T00:48:31.169Z,33.75
2022-10-09T00:51:35.907Z,35.20
2022-10-09T00:54:42.303Z,33.83
2022-10-09T00:57:47.686Z,34.85
2022-10-09T01:00:50.887Z,33.47
2022-10-09T01:03:54.821Z,41.55
2022-10-09T01:07:42.295Z,33.72
2022-10-09T01:11:19.505Z,30.52
2022-10-09T01:14:34.485Z,30.00
2022-10-09T01:17:50.193Z,28.92
2022-10-09T01:21:01.709Z,23.58
2022-10-09T01:24:26.688Z,20.38
2022-10-09T01:27:31.330Z,21.75
2022-10-09T01:30:36.470Z,21.95
2022-10-09T01:33:40.312Z,18.50
2022-10-09T01:36:45.501Z,15.30
2022-10-09T01:39:50.164Z,15.85
2022-10-09T01:42:54.956Z,14.80
2022-10-09T01:46:28.260Z,14.80
2022-10-09T01:49:46.949Z,16.10
2022-10-09T01:52:56.910Z,14.38
2022-10-09T01:56:07.307Z,16.20
2022-10-09T01:59:16.035Z,14.35
2022-10-09T02:02:21.454Z,17.50
2022-10-09T02:05:30.383Z,15.15
2022-10-09T02:08:37.310Z,14.68
2022-10-09T02:11:44.560Z,14.60
2022-10-09T02:14:48.046Z,15.13
2022-10-09T02:17:54.722Z,12.27
2022-10-09T02:21:07.138Z,12.15
2022-10-09T02:24:16.762Z,12.45
2022-10-09T02:27:25.694Z,13.40
2022-10-09T02:30:40.009Z,12.63
2022-10-09T02:33:43.091Z,12.07
2022-10-09T02:36:46.617Z,11.25
2022-10-09T02:39:49.898Z,9.55
2022-10-09T02:42:53.139Z,9.63
2022-10-09T02:45:56.477Z,8.38
2022-10-09T02:49:07.043Z,9.32
2022-10-09T02:52:11.297Z,7.50
2022-10-09T02:55:15.566Z,8.90
2022-10-09T02:58:20.020Z,9.95
2022-10-09T03:01:23.787Z,10.35
2022-10-09T03:07:54.863Z,9.55
2022-10-09T03:10:58.445Z,7.93
2022-10-09T03:14:02.123Z,7.65
2022-10-09T03:17:05.454Z,7.68
2022-10-09T03:20:09.714Z,7.20
2022-10-09T03:23:13.645Z,6.88
2022-10-09T03:26:20.132Z,6.20
2022-10-09T03:29:23.755Z,7.15
2022-10-09T03:32:27.887Z,3.00
2022-10-09T03:35:31.630Z,3.13
2022-10-09T03:38:35.995Z,2.80
2022-10-09T03:41:39.823Z,2.20
2022-10-09T03:44:42.958Z,2.45
2022-10-09T03:47:46.358Z,1.65
2022-10-09T03:50:51.401Z,2.13
2022-10-09T03:53:54.856Z,1.48
2022-10-09T03:56:58.676Z,2.10
2022-10-09T04:00:02.797Z,2.00
2022-10-09T04:03:07.265Z,2.00
2022-10-09T04:06:10.523Z,2.40
2022-10-09T04:09:14.138Z,1.88
2022-10-09T04:12:17.141Z,1.90
2022-10-09T04:15:20.859Z,2.13
2022-10-09T04:18:26.259Z,1.90
2022-10-09T04:21:29.503Z,1.38
2022-10-09T04:24:32.929Z,1.50
2022-10-09T04:27:36.587Z,1.73
2022-10-09T04:30:43.494Z,1.70
2022-10-09T04:33:47.508Z,1.65
2022-10-09T04:36:50.612Z,1.30
2022-10-09T04:40:06.194Z,1.45
2022-10-09T04:43:10.192Z,1.52
2022-10-09T04:46:15.393Z,1.60
2022-10-09T04:55:58.959Z,1.33
2022-10-09T04:59:04.736Z,2.90
2022-10-09T05:02:23.039Z,1.90
2022-10-09T05:17:17.901Z,2.17
2022-10-09T05:20:25.989Z,1.98
2022-10-09T05:23:29.491Z,2.15
2022-10-09T05:26:34.087Z,2.00
2022-10-09T05:29:37.552Z,2.10
2022-10-09T05:32:43.235Z,1.50
2022-10-09T05:35:58.198Z,1.50
2022-10-09T05:39:04.072Z,1.98
2022-10-09T05:42:07.674Z,2.13
2022-10-09T05:45:11.912Z,1.73
2022-10-09T05:48:15.509Z,2.35
2022-10-09T05:51:28.111Z,1.40
2022-10-09T05:54:31.998Z,1.63
2022-10-09T05:57:35.215Z,1.73
2022-10-09T06:00:39.637Z,1.73
2022-10-09T06:03:43.215Z,2.30
2022-10-09T06:06:49.238Z,2.28
2022-10-09T06:09:52.911Z,2.42
2022-10-09T06:12:57.644Z,1.80
2022-10-09T06:16:01.221Z,1.63
2022-10-09T06:19:06.081Z,1.80
2022-10-09T06:22:08.983Z,2.05
2022-10-09T06:25:12.345Z,2.03
2022-10-09T06:28:15.325Z,1.80
2022-10-09T06:31:22.576Z,2.42
2022-10-09T06:34:26.297Z,1.40
2022-10-09T06:37:32.458Z,1.90
2022-10-09T06:40:37.579Z,2.20
2022-10-09T06:43:42.129Z,1.67
2022-10-09T06:46:49.451Z,2.55
2022-10-09T06:49:53.195Z,2.10
2022-10-09T06:52:57.361Z,2.58
2022-10-09T06:56:01.429Z,2.10
2022-10-09T06:59:06.776Z,1.70
2022-10-09T07:02:10.738Z,1.92
2022-10-09T07:05:14.546Z,2.30
2022-10-09T07:08:18.085Z,2.58
2022-10-09T07:11:34.716Z,2.17
2022-10-09T07:14:38.718Z,2.38
2022-10-09T07:17:41.713Z,2.50
2022-10-09T07:20:44.984Z,2.58
2022-10-09T07:23:49.102Z,1.90
2022-10-09T07:26:53.037Z,2.35
2022-10-09T07:29:56.256Z,2.58
2022-10-09T07:33:00.352Z,2.42
2022-10-09T07:36:05.375Z,2.97
2022-10-09T07:39:09.687Z,3.10
2022-10-09T07:42:13.289Z,2.90
2022-10-09T07:45:16.645Z,3.30
2022-10-09T07:48:20.350Z,3.63
2022-10-09T07:51:29.605Z,2.03
2022-10-09T07:54:33.247Z,2.10
2022-10-09T07:57:36.831Z,2.22
2022-10-09T08:00:40.320Z,2.13
2022-10-09T08:03:43.923Z,2.20
2022-10-09T08:06:48.457Z,2.20
2022-10-09T08:09:53.572Z,2.38
2022-10-09T08:12:58.049Z,4.85
2022-10-09T08:16:01.099Z,2.60
2022-10-09T08:19:05.522Z,1.70
2022-10-09T08:22:09.222Z,2.10
2022-10-09T08:25:12.660Z,3.40
2022-10-09T08:28:15.747Z,3.38
2022-10-09T08:31:19.483Z,3.95
2022-10-09T08:34:22.462Z,4.03
2022-10-09T08:37:26.108Z,3.67
2022-10-09T08:40:47.198Z,3.65
2022-10-09T08:43:58.483Z,2.92
2022-10-09T08:47:14.076Z,3.28
2022-10-09T08:50:25.933Z,4.15
2022-10-09T08:53:47.483Z,4.13
2022-10-09T08:56:53.404Z,3.88
2022-10-09T08:59:58.144Z,5.95
2022-10-09T09:03:40.232Z,6.30
2022-10-09T09:07:09.884Z,7.38
2022-10-09T09:10:30.975Z,7.93
2022-10-09T09:13:44.841Z,10.30
2022-10-09T09:16:59.426Z,9.15
2022-10-09T09:20:27.209Z,10.68
2022-10-09T09:23:37.974Z,14.80
2022-10-09T09:26:46.013Z,16.30
2022-10-09T09:29:57.423Z,15.23
2022-10-09T09:33:26.418Z,16.60
2022-10-09T09:36:43.241Z,16.00
2022-10-09T09:43:22.899Z,21.70
2022-10-09T09:46:30.462Z,10.48
2022-10-09T09:49:34.157Z,7.55
2022-10-09T09:52:42.601Z,7.03
2022-10-09T09:55:46.405Z,6.30
2022-10-09T09:58:53.992Z,5.50
2022-10-09T10:02:07.582Z,5.20
2022-10-09T10:05:26.758Z,5.20
2022-10-09T10:08:31.691Z,6.72
2022-10-09T10:11:36.660Z,5.55
2022-10-09T10:14:51.423Z,6.53
2022-10-09T10:18:05.533Z,10.18
2022-10-09T10:21:20.180Z,7.18
2022-10-09T10:24:29.282Z,9.68
2022-10-09T10:27:43.388Z,6.55
2022-10-09T10:30:48.975Z,7.18
2022-10-09T10:33:56.473Z,6.63
2022-10-09T10:37:29.712Z,5.15
2022-10-09T10:40:43.034Z,4.00
2022-10-09T10:43:51.946Z,5.63
2022-10-09T10:47:03.390Z,4.45
2022-10-09T10:50:14.481Z,5.32
2022-10-09T10:53:26.930Z,3.65
2022-10-09T10:56:41.561Z,3.70
2022-10-09T11:00:04.963Z,3.50
2022-10-09T11:03:26.923Z,3.45
2022-10-09T11:06:56.564Z,3.55
2022-10-09T11:10:19.903Z,3.45
2022-10-09T11:13:42.869Z,4.32
2022-10-09T11:17:01.898Z,3.95
2022-10-09T11:20:08.387Z,4.93
2022-10-09T11:23:15.053Z,4.70
2022-10-09T11:27:03.752Z,10.02
2022-10-09T11:30:14.042Z,13.48
2022-10-09T11:33:30.094Z,16.10
2022-10-09T11:36:51.683Z,14.93
2022-10-09T11:39:57.294Z,11.20
2022-10-09T11:43:26.858Z,14.73
2022-10-09T11:46:35.978Z,15.90
2022-10-09T11:49:53.315Z,20.27
2022-10-09T11:53:27.076Z,17.77
2022-10-09T11:56:35.481Z,13.65
2022-10-09T11:59:43.067Z,20.80
2022-10-09T12:02:59.383Z,25.95
2022-10-09T12:06:13.253Z,33.22
2022-10-09T12:09:27.121Z,30.77
2022-10-09T12:12:33.200Z,24.63
2022-10-09T12:15:50.849Z,36.10
2022-10-09T12:18:54.768Z,36.25
2022-10-09T12:22:17.946Z,29.45
2022-10-09T12:25:39.234Z,12.23
2022-10-09T12:28:50.982Z,18.85
2022-10-09T12:31:59.419Z,18.17
2022-10-09T12:35:13.407Z,21.60
2022-10-09T12:38:28.219Z,26.48
2022-10-09T12:41:34.962Z,26.10
2022-10-09T12:44:41.414Z,32.10
2022-10-09T12:47:45.551Z,34.73
2022-10-09T12:50:50.339Z,22.77
2022-10-09T12:53:54.764Z,17.83
2022-10-09T12:56:59.640Z,18.63
2022-10-09T13:00:03.469Z,25.95
2022-10-09T13:03:07.543Z,22.02
2022-10-09T13:06:29.686Z,19.63
2022-10-09T13:09:39.847Z,19.63
2022-10-09T13:12:58.939Z,26.20
2022-10-09T13:16:10.289Z,24.90
2022-10-09T13:19:27.614Z,23.63
2022-10-09T13:22:33.673Z,23.42
2022-10-09T13:25:43.961Z,22.75
2022-10-09T13:28:48.219Z,22.00
2022-10-09T13:31:51.555Z,19.02
2022-10-09T13:34:56.162Z,17.48
2022-10-09T13:38:00.004Z,18.58
2022-10-09T13:41:04.132Z,18.98
2022-10-09T13:44:07.762Z,19.35
2022-10-09T13:47:11.979Z,21.73
2022-10-09T13:50:16.219Z,31.20
2022-10-09T13:53:19.912Z,27.63
2022-10-09T13:56:23.799Z,26.38
2022-10-09T13:59:27.935Z,26.33
2022-10-09T14:02:31.334Z,26.05
2022-10-09T14:05:35.305Z,27.65
2022-10-09T14:08:38.635Z,25.38
2022-10-09T14:11:42.917Z,24.42
2022-10-09T14:14:46.365Z,25.38
2022-10-09T14:17:50.636Z,26.85
2022-10-09T14:20:54.658Z,26.08
2022-10-09T14:24:00.284Z,30.15
2022-10-09T14:27:04.198Z,28.63
2022-10-09T14:30:08.527Z,27.35
2022-10-09T14:33:13.433Z,21.98
2022-10-09T14:36:20.698Z,24.08
2022-10-09T14:39:24.826Z,24.10
2022-10-09T14:42:28.418Z,23.55
2022-10-09T14:45:33.486Z,22.08
2022-10-09T14:48:37.363Z,20.40
2022-10-09T14:51:42.242Z,23.27
2022-10-09T14:54:45.468Z,21.15
2022-10-09T14:57:48.400Z,20.50
2022-10-09T15:00:51.660Z,20.73
2022-10-09T15:03:55.442Z,21.33
2022-10-09T15:06:59.350Z,22.38
2022-10-09T15:10:02.951Z,22.67
2022-10-09T15:13:06.596Z,26.38
2022-10-09T15:16:14.029Z,25.55
2022-10-09T15:19:18.065Z,25.52
2022-10-09T15:22:22.059Z,24.25
2022-10-09T15:25:26.554Z,23.88
2022-10-09T15:28:30.302Z,24.25
2022-10-09T15:31:34.843Z,22.73
2022-10-09T15:34:41.014Z,21.38
2022-10-09T15:37:44.901Z,20.90
2022-10-09T15:40:56.425Z,21.15
2022-10-09T15:44:04.738Z,21.17
2022-10-09T15:50:11.856Z,22.25
2022-10-09T15:53:15.511Z,21.67
2022-10-09T15:56:25.643Z,22.40
2022-10-09T15:59:30.630Z,21.13
2022-10-09T16:02:34.232Z,21.63
2022-10-09T16:05:48.903Z,19.40
2022-10-09T16:08:57.084Z,20.90
2022-10-09T16:12:01.143Z,19.23
2022-10-09T16:15:05.143Z,18.05
2022-10-09T16:18:09.797Z,18.70
2022-10-09T16:21:17.504Z,18.05
2022-10-09T16:24:21.284Z,18.55
2022-10-09T16:27:25.462Z,17.98
2022-10-09T16:30:29.408Z,15.88
2022-10-09T16:33:33.500Z,19.25
2022-10-09T16:36:36.862Z,17.33
2022-10-09T16:39:41.086Z,15.90
2022-10-09T16:42:44.468Z,16.95
2022-10-09T16:45:49.271Z,16.25
2022-10-09T16:48:54.280Z,14.25
2022-10-09T16:51:57.391Z,12.75
2022-10-09T16:55:00.817Z,11.52
2022-10-09T16:58:05.185Z,10.60
2022-10-09T17:01:10.255Z,11.90
2022-10-09T17:04:15.681Z,12.00
2022-10-09T17:07:21.857Z,11.00
2022-10-09T17:10:25.256Z,11.18
2022-10-09T17:13:29.002Z,9.95
2022-10-09T17:16:35.981Z,5.70
2022-10-09T17:19:40.491Z,8.65
2022-10-09T17:22:44.636Z,7.53
2022-10-09T17:25:48.242Z,8.90
2022-10-09T17:28:52.203Z,7.85
2022-10-09T17:31:56.025Z,8.93
2022-10-09T17:34:59.256Z,8.35
2022-10-09T17:38:02.214Z,8.95
2022-10-09T17:41:11.541Z,9.43
2022-10-09T17:44:18.292Z,8.63
2022-10-09T17:47:22.114Z,7.68
2022-10-09T17:50:25.104Z,7.60
2022-10-09T17:53:29.365Z,7.90
2022-10-09T17:56:33.233Z,7.97
2022-10-09T17:59:37.982Z,9.25
2022-10-09T18:02:44.737Z,8.10
2022-10-09T18:05:50.929Z,8.00
2022-10-09T18:08:56.143Z,7.72
2022-10-09T18:12:00.523Z,6.88
2022-10-09T18:15:04.460Z,8.73
2022-10-09T18:18:08.267Z,8.32
2022-10-09T18:21:17.436Z,7.30
2022-10-09T18:24:21.415Z,8.40
2022-10-09T18:27:25.173Z,8.52
2022-10-09T18:30:29.213Z,10.18
2022-10-09T18:33:32.211Z,10.52
2022-10-09T18:36:36.604Z,11.77
2022-10-09T18:39:40.452Z,10.95
2022-10-09T18:42:43.941Z,12.73
2022-10-09T18:45:48.793Z,13.55
2022-10-09T18:48:55.136Z,11.95
2022-10-09T18:52:00.544Z,11.73
2022-10-09T18:55:04.592Z,13.13
2022-10-09T18:58:08.313Z,13.10
2022-10-09T19:01:12.183Z,12.55
2022-10-09T19:04:15.987Z,14.32
2022-10-09T19:07:19.862Z,13.25
2022-10-09T19:10:23.885Z,13.73
2022-10-09T19:13:27.907Z,19.10
2022-10-09T19:16:33.405Z,14.95
2022-10-09T19:19:38.696Z,16.83
2022-10-09T19:22:42.305Z,13.13
2022-10-09T19:25:55.360Z,10.73
2022-10-09T19:28:59.613Z,12.98
2022-10-09T19:32:02.988Z,13.73
2022-10-09T19:35:07.427Z,14.85
2022-10-09T19:38:11.459Z,15.65
2022-10-09T19:41:16.353Z,14.63
2022-10-09T19:44:20.881Z,15.23
2022-10-09T19:47:24.395Z,15.20
2022-10-09T19:50:28.576Z,14.45
2022-10-09T19:53:32.265Z,14.23
2022-10-09T19:56:37.634Z,7.10
2022-10-09T19:59:40.580Z,12.75
2022-10-09T20:02:44.471Z,12.00
2022-10-09T20:05:47.751Z,13.82
2022-10-09T20:08:51.931Z,12.65
2022-10-09T20:11:55.769Z,11.65
2022-10-09T20:14:59.102Z,13.23
2022-10-09T20:18:02.908Z,12.35
2022-10-09T20:21:06.883Z,12.38
2022-10-09T20:24:10.926Z,12.82
2022-10-09T20:27:14.597Z,12.13
2022-10-09T20:30:18.316Z,12.45
2022-10-09T20:33:22.223Z,12.02
2022-10-09T20:36:35.990Z,11.70
2022-10-09T20:39:39.308Z,11.05
2022-10-09T20:42:42.486Z,11.82
2022-10-09T20:45:47.262Z,11.02
2022-10-09T20:48:52.074Z,10.52
2022-10-09T20:51:57.329Z,10.75
2022-10-09T20:55:00.950Z,20.85
2022-10-09T20:58:04.114Z,20.08
2022-10-09T21:01:10.014Z,28.88
2022-10-09T21:04:15.363Z,25.65
2022-10-09T21:07:18.278Z,20.02
2022-10-09T21:10:21.566Z,17.17
2022-10-09T21:13:25.490Z,11.05
2022-10-09T21:16:29.406Z,10.95
2022-10-09T21:19:32.545Z,9.15
2022-10-09T21:22:35.718Z,8.70
2022-10-09T21:25:39.754Z,9.00
2022-10-09T21:28:44.631Z,8.70
2022-10-09T21:31:47.759Z,8.68
2022-10-09T21:34:51.771Z,8.52
2022-10-09T21:37:54.801Z,8.20
2022-10-09T21:40:58.841Z,8.20
2022-10-09T21:44:02.710Z,8.90
2022-10-09T21:47:06.644Z,7.95
2022-10-09T21:50:10.673Z,7.93
2022-10-09T21:53:14.866Z,8.65
2022-10-09T21:56:18.828Z,9.32
2022-10-09T21:59:23.053Z,11.07
2022-10-09T22:02:26.460Z,10.02
2022-10-09T22:05:30.542Z,12.07
2022-10-09T22:08:34.977Z,11.68
2022-10-09T22:11:38.586Z,13.68
2022-10-09T22:14:42.082Z,12.85
2022-10-09T22:17:45.903Z,20.88
2022-10-09T22:20:51.141Z,16.50
2022-10-09T22:23:55.264Z,16.65
2022-10-09T22:26:58.731Z,15.95
2022-10-09T22:30:02.861Z,14.55
2022-10-09T22:33:06.329Z,15.80
2022-10-09T22:36:15.507Z,13.18
2022-10-09T22:39:18.847Z,13.13
2022-10-09T22:42:22.802Z,12.25
2022-10-09T22:45:26.468Z,11.60
2022-10-09T22:48:30.369Z,9.55
2022-10-09T22:51:33.678Z,10.15
2022-10-09T22:54:37.532Z,10.95
2022-10-09T22:57:40.652Z,9.63
2022-10-09T23:00:44.771Z,9.93
2022-10-09T23:03:48.207Z,9.43
2022-10-09T23:06:54.578Z,9.20
2022-10-09T23:09:58.222Z,11.20
2022-10-09T23:13:02.332Z,11.70
2022-10-09T23:16:08.824Z,11.90
2022-10-09T23:19:12.368Z,12.32
2022-10-09T23:22:15.915Z,11.27
2022-10-09T23:25:19.762Z,10.68
2022-10-09T23:28:23.184Z,10.48
2022-10-09T23:31:28.076Z,12.60
2022-10-09T23:34:32.206Z,11.35
2022-10-09T23:37:35.849Z,10.07
2022-10-09T23:40:39.495Z,11.98
2022-10-09T23:43:44.755Z,11.77
2022-10-09T23:46:48.842Z,12.32
2022-10-09T23:49:52.446Z,23.45
2022-10-09T23:52:56.448Z,25.17
2022-10-09T23:56:00.110Z,21.20
2022-10-09T23:59:09.008Z,23.02
